sensor_id;sensor_type;location;lat;lon;timestamp;temperature;humidity
1137;DHT22;557;48.466;7.950;2023-03-23T00:02:23;12.30;1.00
1137;DHT22;557;48.466;7.950;2023-03-23T00:05:12;12.40;99.90
1137;DHT22;557;48.466;7.950;2023-03-23T00:07:59;12.60;99.90
1137;DHT22;557;48.466;7.950;2023-03-23T00:10:49;12.80;3.90
1137;DHT22;557;48.466;7.950;2023-03-23T00:13:38;12.90;99.90
1137;DHT22;557;48.466;7.950;2023-03-23T00:16:25;13.10;1.00
1137;DHT22;557;48.466;7.950;2023-03-23T00:19:17;13.00;1.00
1137;DHT22;557;48.466;7.950;2023-03-23T00:22:06;13.00;1.00
1137;DHT22;557;48.466;7.950;2023-03-23T00:24:54;13.00;1.00
1137;DHT22;557;48.466;7.950;2023-03-23T00:27:41;12.90;99.90
1137;DHT22;557;48.466;7.950;2023-03-23T00:30:30;12.80;99.90
1137;DHT22;557;48.466;7.950;2023-03-23T00:33:17;12.90;99.90
1137;DHT22;557;48.466;7.950;2023-03-23T00:36:05;12.90;99.90
1137;DHT22;557;48.466;7.950;2023-03-23T00:38:55;12.90;99.90
1137;DHT22;557;48.466;7.950;2023-03-23T00:41:46;12.90;99.90
1137;DHT22;557;48.466;7.950;2023-03-23T00:44:33;12.80;1.00
1137;DHT22;557;48.466;7.950;2023-03-23T00:47:21;12.70;1.00
1137;DHT22;557;48.466;7.950;2023-03-23T00:50:10;12.80;1.00
1137;DHT22;557;48.466;7.950;2023-03-23T00:52:59;12.80;1.00
1137;DHT22;557;48.466;7.950;2023-03-23T00:55:48;12.70;1.00
1137;DHT22;557;48.466;7.950;2023-03-23T00:58:36;12.80;99.90
1137;DHT22;557;48.466;7.950;2023-03-23T01:01:23;13.00;1.00
1137;DHT22;557;48.466;7.950;2023-03-23T01:04:10;13.10;1.00
1137;DHT22;557;48.466;7.950;2023-03-23T01:06:58;13.20;99.90
1137;DHT22;557;48.466;7.950;2023-03-23T01:09:47;13.20;99.90
1137;DHT22;557;48.466;7.950;2023-03-23T01:12:36;13.30;99.90
1137;DHT22;557;48.466;7.950;2023-03-23T01:15:23;13.30;99.90
1137;DHT22;557;48.466;7.950;2023-03-23T01:18:10;13.40;99.90
1137;DHT22;557;48.466;7.950;2023-03-23T01:21:02;13.50;1.00
1137;DHT22;557;48.466;7.950;2023-03-23T01:23:50;13.60;1.00
1137;DHT22;557;48.466;7.950;2023-03-23T01:26:37;13.80;1.00
1137;DHT22;557;48.466;7.950;2023-03-23T01:29:26;13.70;1.00
1137;DHT22;557;48.466;7.950;2023-03-23T01:32:13;13.70;1.00
1137;DHT22;557;48.466;7.950;2023-03-23T01:35:01;13.80;1.00
1137;DHT22;557;48.466;7.950;2023-03-23T01:37:48;13.80;1.00
1137;DHT22;557;48.466;7.950;2023-03-23T01:40:36;13.70;1.00
1137;DHT22;557;48.466;7.950;2023-03-23T01:43:23;13.70;1.00
1137;DHT22;557;48.466;7.950;2023-03-23T01:46:12;13.70;1.00
1137;DHT22;557;48.466;7.950;2023-03-23T01:49:01;13.70;1.00
1137;DHT22;557;48.466;7.950;2023-03-23T01:51:54;13.70;1.00
1137;DHT22;557;48.466;7.950;2023-03-23T01:54:44;13.70;1.00
1137;DHT22;557;48.466;7.950;2023-03-23T01:57:34;13.80;1.00
1137;DHT22;557;48.466;7.950;2023-03-23T02:00:21;13.90;1.00
1137;DHT22;557;48.466;7.950;2023-03-23T02:03:11;13.90;1.00
1137;DHT22;557;48.466;7.950;2023-03-23T02:05:59;13.90;1.00
1137;DHT22;557;48.466;7.950;2023-03-23T02:08:48;13.90;1.00
1137;DHT22;557;48.466;7.950;2023-03-23T02:11:36;13.80;1.00
1137;DHT22;557;48.466;7.950;2023-03-23T02:14:25;13.70;1.00
1137;DHT22;557;48.466;7.950;2023-03-23T02:17:18;13.70;1.00
1137;DHT22;557;48.466;7.950;2023-03-23T02:20:23;13.70;1.00
1137;DHT22;557;48.466;7.950;2023-03-23T02:23:40;13.80;1.00
1137;DHT22;557;48.466;7.950;2023-03-23T02:26:38;13.90;1.00
1137;DHT22;557;48.466;7.950;2023-03-23T02:29:52;13.80;1.00
1137;DHT22;557;48.466;7.950;2023-03-23T02:36:13;13.90;1.00
1137;DHT22;557;48.466;7.950;2023-03-23T02:39:05;14.00;1.00
1137;DHT22;557;48.466;7.950;2023-03-23T02:41:58;14.20;1.00
1137;DHT22;557;48.466;7.950;2023-03-23T02:44:47;14.10;99.90
1137;DHT22;557;48.466;7.950;2023-03-23T02:47:37;14.20;99.90
1137;DHT22;557;48.466;7.950;2023-03-23T02:50:27;14.30;99.90
1137;DHT22;557;48.466;7.950;2023-03-23T02:53:19;14.50;99.90
1137;DHT22;557;48.466;7.950;2023-03-23T02:56:08;14.50;99.90
1137;DHT22;557;48.466;7.950;2023-03-23T02:58:57;14.60;99.90
1137;DHT22;557;48.466;7.950;2023-03-23T03:02:01;14.60;99.90
1137;DHT22;557;48.466;7.950;2023-03-23T03:04:54;14.60;99.90
1137;DHT22;557;48.466;7.950;2023-03-23T03:07:58;14.60;99.90
1137;DHT22;557;48.466;7.950;2023-03-23T03:10:54;14.50;99.90
1137;DHT22;557;48.466;7.950;2023-03-23T03:13:47;14.40;99.90
1137;DHT22;557;48.466;7.950;2023-03-23T03:16:41;14.40;99.90
1137;DHT22;557;48.466;7.950;2023-03-23T03:19:34;14.30;99.90
1137;DHT22;557;48.466;7.950;2023-03-23T03:22:23;14.30;99.90
1137;DHT22;557;48.466;7.950;2023-03-23T03:25:15;14.30;99.90
1137;DHT22;557;48.466;7.950;2023-03-23T03:28:04;14.40;99.90
1137;DHT22;557;48.466;7.950;2023-03-23T03:30:54;14.50;99.90
1137;DHT22;557;48.466;7.950;2023-03-23T03:33:42;14.60;99.90
1137;DHT22;557;48.466;7.950;2023-03-23T03:36:32;14.70;99.90
1137;DHT22;557;48.466;7.950;2023-03-23T03:39:21;14.70;99.90
1137;DHT22;557;48.466;7.950;2023-03-23T03:42:08;14.70;99.90
1137;DHT22;557;48.466;7.950;2023-03-23T03:44:57;14.70;99.90
1137;DHT22;557;48.466;7.950;2023-03-23T03:47:45;14.70;99.90
1137;DHT22;557;48.466;7.950;2023-03-23T03:50:33;14.60;99.90
1137;DHT22;557;48.466;7.950;2023-03-23T03:53:20;14.60;99.90
1137;DHT22;557;48.466;7.950;2023-03-23T03:56:08;14.50;99.90
1137;DHT22;557;48.466;7.950;2023-03-23T03:58:56;14.60;99.90
1137;DHT22;557;48.466;7.950;2023-03-23T04:01:44;14.60;99.90
1137;DHT22;557;48.466;7.950;2023-03-23T04:04:32;14.60;99.90
1137;DHT22;557;48.466;7.950;2023-03-23T04:07:19;14.50;99.90
1137;DHT22;557;48.466;7.950;2023-03-23T04:10:08;14.50;99.90
1137;DHT22;557;48.466;7.950;2023-03-23T04:12:57;14.40;99.90
1137;DHT22;557;48.466;7.950;2023-03-23T04:15:44;14.40;99.90
1137;DHT22;557;48.466;7.950;2023-03-23T04:18:34;14.20;99.90
1137;DHT22;557;48.466;7.950;2023-03-23T04:21:21;14.20;99.90
1137;DHT22;557;48.466;7.950;2023-03-23T04:24:09;14.10;99.90
1137;DHT22;557;48.466;7.950;2023-03-23T04:26:56;14.10;99.90
1137;DHT22;557;48.466;7.950;2023-03-23T04:29:43;14.10;99.90
1137;DHT22;557;48.466;7.950;2023-03-23T04:32:34;14.10;99.90
1137;DHT22;557;48.466;7.950;2023-03-23T04:35:24;14.10;99.90
1137;DHT22;557;48.466;7.950;2023-03-23T04:38:12;14.10;99.90
1137;DHT22;557;48.466;7.950;2023-03-23T04:41:00;14.00;99.90
1137;DHT22;557;48.466;7.950;2023-03-23T04:43:48;13.90;99.90
1137;DHT22;557;48.466;7.950;2023-03-23T04:46:38;13.90;1.00
1137;DHT22;557;48.466;7.950;2023-03-23T04:49:25;13.90;1.00
1137;DHT22;557;48.466;7.950;2023-03-23T04:52:14;13.80;1.00
1137;DHT22;557;48.466;7.950;2023-03-23T04:55:05;13.70;1.00
1137;DHT22;557;48.466;7.950;2023-03-23T04:57:52;13.70;1.00
1137;DHT22;557;48.466;7.950;2023-03-23T05:00:41;13.70;1.00
1137;DHT22;557;48.466;7.950;2023-03-23T05:03:29;13.70;1.00
1137;DHT22;557;48.466;7.950;2023-03-23T05:06:16;13.70;1.00
1137;DHT22;557;48.466;7.950;2023-03-23T05:09:05;13.70;1.00
1137;DHT22;557;48.466;7.950;2023-03-23T05:11:53;13.70;1.00
1137;DHT22;557;48.466;7.950;2023-03-23T05:14:41;13.80;1.00
1137;DHT22;557;48.466;7.950;2023-03-23T05:17:28;13.80;1.00
1137;DHT22;557;48.466;7.950;2023-03-23T05:20:18;13.80;1.00
1137;DHT22;557;48.466;7.950;2023-03-23T05:23:06;13.80;1.00
1137;DHT22;557;48.466;7.950;2023-03-23T05:25:57;13.70;1.00
1137;DHT22;557;48.466;7.950;2023-03-23T05:28:46;13.70;1.00
1137;DHT22;557;48.466;7.950;2023-03-23T05:31:39;13.60;1.00
1137;DHT22;557;48.466;7.950;2023-03-23T05:34:26;13.70;99.90
1137;DHT22;557;48.466;7.950;2023-03-23T05:37:14;13.70;1.00
1137;DHT22;557;48.466;7.950;2023-03-23T05:40:02;13.60;1.00
1137;DHT22;557;48.466;7.950;2023-03-23T05:42:53;13.60;1.00
1137;DHT22;557;48.466;7.950;2023-03-23T05:45:43;13.60;99.90
1137;DHT22;557;48.466;7.950;2023-03-23T05:48:33;13.50;1.00
1137;DHT22;557;48.466;7.950;2023-03-23T05:51:21;13.40;99.90
1137;DHT22;557;48.466;7.950;2023-03-23T05:54:08;13.30;99.90
1137;DHT22;557;48.466;7.950;2023-03-23T05:57:02;13.30;1.00
1137;DHT22;557;48.466;7.950;2023-03-23T05:59:55;13.10;99.90
1137;DHT22;557;48.466;7.950;2023-03-23T06:02:43;13.10;99.90
1137;DHT22;557;48.466;7.950;2023-03-23T06:05:31;13.10;1.00
1137;DHT22;557;48.466;7.950;2023-03-23T06:08:19;13.20;1.00
1137;DHT22;557;48.466;7.950;2023-03-23T06:11:06;13.20;1.00
1137;DHT22;557;48.466;7.950;2023-03-23T06:13:53;13.20;99.90
1137;DHT22;557;48.466;7.950;2023-03-23T06:16:42;13.00;99.90
1137;DHT22;557;48.466;7.950;2023-03-23T06:19:30;13.00;1.00
1137;DHT22;557;48.466;7.950;2023-03-23T06:22:18;13.00;99.90
1137;DHT22;557;48.466;7.950;2023-03-23T06:25:07;12.90;1.00
1137;DHT22;557;48.466;7.950;2023-03-23T06:27:54;13.00;60.40
1137;DHT22;557;48.466;7.950;2023-03-23T06:30:42;13.00;1.00
1137;DHT22;557;48.466;7.950;2023-03-23T06:33:31;12.90;99.90
1137;DHT22;557;48.466;7.950;2023-03-23T06:36:18;12.90;99.90
1137;DHT22;557;48.466;7.950;2023-03-23T06:39:06;12.80;99.90
1137;DHT22;557;48.466;7.950;2023-03-23T06:41:53;12.80;99.90
1137;DHT22;557;48.466;7.950;2023-03-23T06:44:42;12.90;1.00
1137;DHT22;557;48.466;7.950;2023-03-23T06:47:31;12.90;1.00
1137;DHT22;557;48.466;7.950;2023-03-23T06:50:20;12.90;99.90
1137;DHT22;557;48.466;7.950;2023-03-23T06:53:07;12.90;99.90
1137;DHT22;557;48.466;7.950;2023-03-23T06:55:54;12.90;99.90
1137;DHT22;557;48.466;7.950;2023-03-23T06:58:42;12.90;99.90
1137;DHT22;557;48.466;7.950;2023-03-23T07:01:31;13.00;99.90
1137;DHT22;557;48.466;7.950;2023-03-23T07:04:18;13.00;99.90
1137;DHT22;557;48.466;7.950;2023-03-23T07:07:08;13.10;99.90
1137;DHT22;557;48.466;7.950;2023-03-23T07:09:56;13.10;99.90
1137;DHT22;557;48.466;7.950;2023-03-23T07:12:44;13.10;99.90
1137;DHT22;557;48.466;7.950;2023-03-23T07:15:31;13.00;99.90
1137;DHT22;557;48.466;7.950;2023-03-23T07:18:18;13.00;1.00
1137;DHT22;557;48.466;7.950;2023-03-23T07:21:06;13.00;1.00
1137;DHT22;557;48.466;7.950;2023-03-23T07:23:55;13.00;28.10
1137;DHT22;557;48.466;7.950;2023-03-23T07:26:42;12.90;1.00
1137;DHT22;557;48.466;7.950;2023-03-23T07:29:30;12.90;1.00
1137;DHT22;557;48.466;7.950;2023-03-23T07:32:20;12.90;23.50
1137;DHT22;557;48.466;7.950;2023-03-23T07:35:08;12.90;1.00
1137;DHT22;557;48.466;7.950;2023-03-23T07:37:56;13.00;1.00
1137;DHT22;557;48.466;7.950;2023-03-23T07:40:45;12.90;20.30
1137;DHT22;557;48.466;7.950;2023-03-23T07:43:33;13.00;1.00
1137;DHT22;557;48.466;7.950;2023-03-23T07:46:20;13.00;1.00
1137;DHT22;557;48.466;7.950;2023-03-23T07:49:07;12.90;1.00
1137;DHT22;557;48.466;7.950;2023-03-23T07:51:55;12.90;1.00
1137;DHT22;557;48.466;7.950;2023-03-23T07:54:42;12.90;1.00
1137;DHT22;557;48.466;7.950;2023-03-23T07:57:31;12.90;1.00
1137;DHT22;557;48.466;7.950;2023-03-23T08:00:21;12.90;1.00
1137;DHT22;557;48.466;7.950;2023-03-23T08:03:09;12.90;1.00
1137;DHT22;557;48.466;7.950;2023-03-23T08:05:57;12.90;1.00
1137;DHT22;557;48.466;7.950;2023-03-23T08:08:45;13.00;1.00
1137;DHT22;557;48.466;7.950;2023-03-23T08:11:33;13.10;1.00
1137;DHT22;557;48.466;7.950;2023-03-23T08:14:21;13.20;1.00
1137;DHT22;557;48.466;7.950;2023-03-23T08:17:14;13.30;1.00
1137;DHT22;557;48.466;7.950;2023-03-23T08:20:02;13.40;1.00
1137;DHT22;557;48.466;7.950;2023-03-23T08:22:57;13.50;1.00
1137;DHT22;557;48.466;7.950;2023-03-23T08:25:45;13.60;99.90
1137;DHT22;557;48.466;7.950;2023-03-23T08:28:35;13.60;99.90
1137;DHT22;557;48.466;7.950;2023-03-23T08:31:24;13.70;99.90
1137;DHT22;557;48.466;7.950;2023-03-23T08:34:13;13.70;1.00
1137;DHT22;557;48.466;7.950;2023-03-23T08:37:01;13.80;99.90
1137;DHT22;557;48.466;7.950;2023-03-23T08:39:51;13.90;1.00
1137;DHT22;557;48.466;7.950;2023-03-23T08:42:40;13.90;1.00
1137;DHT22;557;48.466;7.950;2023-03-23T08:45:28;14.00;1.00
1137;DHT22;557;48.466;7.950;2023-03-23T08:48:17;14.10;87.20
1137;DHT22;557;48.466;7.950;2023-03-23T08:51:06;14.10;1.00
1137;DHT22;557;48.466;7.950;2023-03-23T08:53:54;13.90;1.00
1137;DHT22;557;48.466;7.950;2023-03-23T08:56:42;13.90;99.90
1137;DHT22;557;48.466;7.950;2023-03-23T08:59:30;14.00;1.00
1137;DHT22;557;48.466;7.950;2023-03-23T09:02:17;14.00;1.00
1137;DHT22;557;48.466;7.950;2023-03-23T09:05:06;14.10;1.00
1137;DHT22;557;48.466;7.950;2023-03-23T09:07:57;14.20;1.00
1137;DHT22;557;48.466;7.950;2023-03-23T09:10:45;14.30;5.40
1137;DHT22;557;48.466;7.950;2023-03-23T09:13:32;14.50;1.00
1137;DHT22;557;48.466;7.950;2023-03-23T09:16:20;14.70;99.90
1137;DHT22;557;48.466;7.950;2023-03-23T09:19:07;14.80;1.00
1137;DHT22;557;48.466;7.950;2023-03-23T09:21:57;15.20;99.90
1137;DHT22;557;48.466;7.950;2023-03-23T09:24:44;15.40;1.00
1137;DHT22;557;48.466;7.950;2023-03-23T09:27:32;15.70;99.90
1137;DHT22;557;48.466;7.950;2023-03-23T09:30:20;15.90;99.90
1137;DHT22;557;48.466;7.950;2023-03-23T09:33:07;16.00;20.30
1137;DHT22;557;48.466;7.950;2023-03-23T09:35:55;16.20;1.00
1137;DHT22;557;48.466;7.950;2023-03-23T09:38:43;16.30;1.00
1137;DHT22;557;48.466;7.950;2023-03-23T09:41:57;16.20;99.90
1137;DHT22;557;48.466;7.950;2023-03-23T09:44:57;16.20;1.00
1137;DHT22;557;48.466;7.950;2023-03-23T09:48:03;16.20;66.90
1137;DHT22;557;48.466;7.950;2023-03-23T09:50:57;16.20;99.90
1137;DHT22;557;48.466;7.950;2023-03-23T09:53:50;16.20;63.40
1137;DHT22;557;48.466;7.950;2023-03-23T09:56:38;16.40;99.90
1137;DHT22;557;48.466;7.950;2023-03-23T09:59:33;16.40;1.00
1137;DHT22;557;48.466;7.950;2023-03-23T10:02:27;16.40;1.00
1137;DHT22;557;48.466;7.950;2023-03-23T10:05:26;16.30;1.00
1137;DHT22;557;48.466;7.950;2023-03-23T10:08:16;16.20;1.00
1137;DHT22;557;48.466;7.950;2023-03-23T10:11:10;16.10;98.10
1137;DHT22;557;48.466;7.950;2023-03-23T10:14:12;16.10;90.50
1137;DHT22;557;48.466;7.950;2023-03-23T10:17:11;16.00;99.90
1137;DHT22;557;48.466;7.950;2023-03-23T10:20:14;16.10;99.90
1137;DHT22;557;48.466;7.950;2023-03-23T10:23:12;16.00;99.90
1137;DHT22;557;48.466;7.950;2023-03-23T10:26:04;16.00;99.90
1137;DHT22;557;48.466;7.950;2023-03-23T10:28:59;16.10;99.90
1137;DHT22;557;48.466;7.950;2023-03-23T10:31:52;16.20;99.90
1137;DHT22;557;48.466;7.950;2023-03-23T10:34:44;16.30;99.90
1137;DHT22;557;48.466;7.950;2023-03-23T10:37:36;16.30;1.00
1137;DHT22;557;48.466;7.950;2023-03-23T10:40:28;16.40;1.00
1137;DHT22;557;48.466;7.950;2023-03-23T10:43:17;16.60;1.00
1137;DHT22;557;48.466;7.950;2023-03-23T10:46:14;16.50;1.00
1137;DHT22;557;48.466;7.950;2023-03-23T10:49:08;16.60;1.00
1137;DHT22;557;48.466;7.950;2023-03-23T10:52:01;16.80;1.00
1137;DHT22;557;48.466;7.950;2023-03-23T10:54:54;16.80;1.00
1137;DHT22;557;48.466;7.950;2023-03-23T10:57:43;16.90;1.00
1137;DHT22;557;48.466;7.950;2023-03-23T11:00:32;16.90;99.90
1137;DHT22;557;48.466;7.950;2023-03-23T11:03:33;16.80;99.90
1137;DHT22;557;48.466;7.950;2023-03-23T11:06:23;16.80;1.00
1137;DHT22;557;48.466;7.950;2023-03-23T11:09:13;16.80;1.00
1137;DHT22;557;48.466;7.950;2023-03-23T11:12:01;16.70;1.00
1137;DHT22;557;48.466;7.950;2023-03-23T11:14:49;16.60;1.00
1137;DHT22;557;48.466;7.950;2023-03-23T11:17:37;16.70;1.00
1137;DHT22;557;48.466;7.950;2023-03-23T11:20:28;16.70;1.00
1137;DHT22;557;48.466;7.950;2023-03-23T11:23:20;16.50;1.00
1137;DHT22;557;48.466;7.950;2023-03-23T11:26:13;16.50;1.00
1137;DHT22;557;48.466;7.950;2023-03-23T11:29:05;16.40;1.00
1137;DHT22;557;48.466;7.950;2023-03-23T11:32:02;16.50;1.00
1137;DHT22;557;48.466;7.950;2023-03-23T11:34:56;16.40;1.00
1137;DHT22;557;48.466;7.950;2023-03-23T11:37:48;16.50;1.00
1137;DHT22;557;48.466;7.950;2023-03-23T11:40:44;16.70;1.00
1137;DHT22;557;48.466;7.950;2023-03-23T11:43:38;16.80;1.00
1137;DHT22;557;48.466;7.950;2023-03-23T11:46:33;16.90;1.00
1137;DHT22;557;48.466;7.950;2023-03-23T11:49:32;17.00;1.00
1137;DHT22;557;48.466;7.950;2023-03-23T11:52:28;16.90;1.00
1137;DHT22;557;48.466;7.950;2023-03-23T11:55:20;16.80;1.00
1137;DHT22;557;48.466;7.950;2023-03-23T11:58:12;16.80;1.00
1137;DHT22;557;48.466;7.950;2023-03-23T12:01:05;16.90;1.00
1137;DHT22;557;48.466;7.950;2023-03-23T12:04:02;17.00;99.90
1137;DHT22;557;48.466;7.950;2023-03-23T12:06:58;17.00;99.90
1137;DHT22;557;48.466;7.950;2023-03-23T12:09:56;17.10;99.90
1137;DHT22;557;48.466;7.950;2023-03-23T12:12:50;17.30;99.90
1137;DHT22;557;48.466;7.950;2023-03-23T12:15:54;17.20;99.90
1137;DHT22;557;48.466;7.950;2023-03-23T12:18:51;17.10;99.90
1137;DHT22;557;48.466;7.950;2023-03-23T12:21:48;17.10;99.90
1137;DHT22;557;48.466;7.950;2023-03-23T12:24:46;17.20;99.90
1137;DHT22;557;48.466;7.950;2023-03-23T12:27:41;17.30;99.90
1137;DHT22;557;48.466;7.950;2023-03-23T12:30:37;17.30;99.90
1137;DHT22;557;48.466;7.950;2023-03-23T12:33:37;17.40;99.90
1137;DHT22;557;48.466;7.950;2023-03-23T12:36:44;17.60;99.90
1137;DHT22;557;48.466;7.950;2023-03-23T12:42:52;17.40;99.90
1137;DHT22;557;48.466;7.950;2023-03-23T12:48:57;17.60;99.90
1137;DHT22;557;48.466;7.950;2023-03-23T12:51:51;17.70;99.90
1137;DHT22;557;48.466;7.950;2023-03-23T12:54:45;17.80;99.90
1137;DHT22;557;48.466;7.950;2023-03-23T12:57:42;17.90;99.90
1137;DHT22;557;48.466;7.950;2023-03-23T13:00:35;18.10;99.90
1137;DHT22;557;48.466;7.950;2023-03-23T13:03:28;18.20;99.90
1137;DHT22;557;48.466;7.950;2023-03-23T13:06:23;18.20;99.90
1137;DHT22;557;48.466;7.950;2023-03-23T13:09:19;18.10;99.90
1137;DHT22;557;48.466;7.950;2023-03-23T13:12:10;18.10;99.90
1137;DHT22;557;48.466;7.950;2023-03-23T13:15:04;18.30;99.90
1137;DHT22;557;48.466;7.950;2023-03-23T13:18:01;18.60;99.90
1137;DHT22;557;48.466;7.950;2023-03-23T13:21:00;19.00;99.90
1137;DHT22;557;48.466;7.950;2023-03-23T13:23:52;19.30;99.90
1137;DHT22;557;48.466;7.950;2023-03-23T13:26:41;19.50;99.90
1137;DHT22;557;48.466;7.950;2023-03-23T13:29:29;19.50;99.90
1137;DHT22;557;48.466;7.950;2023-03-23T13:32:19;19.40;99.90
1137;DHT22;557;48.466;7.950;2023-03-23T13:35:12;19.00;99.90
1137;DHT22;557;48.466;7.950;2023-03-23T13:38:12;18.70;99.90
1137;DHT22;557;48.466;7.950;2023-03-23T13:41:07;18.60;99.90
1137;DHT22;557;48.466;7.950;2023-03-23T13:44:06;18.50;99.90
1137;DHT22;557;48.466;7.950;2023-03-23T13:47:08;18.30;99.90
1137;DHT22;557;48.466;7.950;2023-03-23T13:50:09;18.30;99.90
1137;DHT22;557;48.466;7.950;2023-03-23T13:52:59;18.10;99.90
1137;DHT22;557;48.466;7.950;2023-03-23T13:55:50;18.10;99.90
1137;DHT22;557;48.466;7.950;2023-03-23T13:58:45;18.20;99.90
1137;DHT22;557;48.466;7.950;2023-03-23T14:01:35;18.30;99.90
1137;DHT22;557;48.466;7.950;2023-03-23T14:04:30;18.20;99.90
1137;DHT22;557;48.466;7.950;2023-03-23T14:07:19;18.20;99.90
1137;DHT22;557;48.466;7.950;2023-03-23T14:10:07;18.20;99.90
1137;DHT22;557;48.466;7.950;2023-03-23T14:12:59;18.30;99.90
1137;DHT22;557;48.466;7.950;2023-03-23T14:15:57;18.30;99.90
1137;DHT22;557;48.466;7.950;2023-03-23T14:18:51;18.40;99.90
1137;DHT22;557;48.466;7.950;2023-03-23T14:21:42;18.30;99.90
1137;DHT22;557;48.466;7.950;2023-03-23T14:24:31;18.30;99.90
1137;DHT22;557;48.466;7.950;2023-03-23T14:27:20;18.30;99.90
1137;DHT22;557;48.466;7.950;2023-03-23T14:30:14;18.20;99.90
1137;DHT22;557;48.466;7.950;2023-03-23T14:33:04;18.20;99.90
1137;DHT22;557;48.466;7.950;2023-03-23T14:35:53;18.20;99.90
1137;DHT22;557;48.466;7.950;2023-03-23T14:38:43;18.20;99.90
1137;DHT22;557;48.466;7.950;2023-03-23T14:41:31;18.20;99.90
1137;DHT22;557;48.466;7.950;2023-03-23T14:44:22;18.20;99.90
1137;DHT22;557;48.466;7.950;2023-03-23T14:47:16;18.10;99.90
1137;DHT22;557;48.466;7.950;2023-03-23T14:50:18;18.10;99.90
1137;DHT22;557;48.466;7.950;2023-03-23T14:53:13;18.10;99.90
1137;DHT22;557;48.466;7.950;2023-03-23T14:56:08;18.00;99.90
1137;DHT22;557;48.466;7.950;2023-03-23T14:59:03;18.00;99.90
1137;DHT22;557;48.466;7.950;2023-03-23T15:01:51;18.00;99.90
1137;DHT22;557;48.466;7.950;2023-03-23T15:04:41;18.00;99.90
1137;DHT22;557;48.466;7.950;2023-03-23T15:07:34;18.00;99.90
1137;DHT22;557;48.466;7.950;2023-03-23T15:10:23;18.00;99.90
1137;DHT22;557;48.466;7.950;2023-03-23T15:13:12;18.00;99.90
1137;DHT22;557;48.466;7.950;2023-03-23T15:16:04;18.00;99.90
1137;DHT22;557;48.466;7.950;2023-03-23T15:18:54;18.00;99.90
1137;DHT22;557;48.466;7.950;2023-03-23T15:21:52;18.00;99.90
1137;DHT22;557;48.466;7.950;2023-03-23T15:24:41;17.90;99.90
1137;DHT22;557;48.466;7.950;2023-03-23T15:27:31;17.90;99.90
1137;DHT22;557;48.466;7.950;2023-03-23T15:30:32;17.80;99.90
1137;DHT22;557;48.466;7.950;2023-03-23T15:33:20;17.80;98.70
1137;DHT22;557;48.466;7.950;2023-03-23T15:36:16;17.70;98.40
1137;DHT22;557;48.466;7.950;2023-03-23T15:39:06;17.70;97.30
1137;DHT22;557;48.466;7.950;2023-03-23T15:41:54;17.60;97.90
1137;DHT22;557;48.466;7.950;2023-03-23T15:44:42;17.70;96.40
1137;DHT22;557;48.466;7.950;2023-03-23T15:47:37;17.60;94.90
1137;DHT22;557;48.466;7.950;2023-03-23T15:50:34;17.60;94.60
1137;DHT22;557;48.466;7.950;2023-03-23T15:53:28;17.70;95.50
1137;DHT22;557;48.466;7.950;2023-03-23T15:56:17;17.60;93.20
1137;DHT22;557;48.466;7.950;2023-03-23T15:59:08;17.60;93.10
1137;DHT22;557;48.466;7.950;2023-03-23T16:01:56;17.50;93.80
1137;DHT22;557;48.466;7.950;2023-03-23T16:04:43;17.50;93.00
1137;DHT22;557;48.466;7.950;2023-03-23T16:07:31;17.50;94.70
1137;DHT22;557;48.466;7.950;2023-03-23T16:10:21;17.40;94.00
1137;DHT22;557;48.466;7.950;2023-03-23T16:13:11;17.30;93.60
1137;DHT22;557;48.466;7.950;2023-03-23T16:15:59;17.20;93.30
1137;DHT22;557;48.466;7.950;2023-03-23T16:18:46;17.20;92.70
1137;DHT22;557;48.466;7.950;2023-03-23T16:21:34;17.20;92.00
1137;DHT22;557;48.466;7.950;2023-03-23T16:24:21;17.20;92.50
1137;DHT22;557;48.466;7.950;2023-03-23T16:27:08;17.30;93.40
1137;DHT22;557;48.466;7.950;2023-03-23T16:29:57;17.20;92.90
1137;DHT22;557;48.466;7.950;2023-03-23T16:32:45;17.20;93.30
1137;DHT22;557;48.466;7.950;2023-03-23T16:35:33;17.20;93.70
1137;DHT22;557;48.466;7.950;2023-03-23T16:38:20;17.20;92.10
1137;DHT22;557;48.466;7.950;2023-03-23T16:41:08;17.20;92.50
1137;DHT22;557;48.466;7.950;2023-03-23T16:43:55;17.20;93.00
1137;DHT22;557;48.466;7.950;2023-03-23T16:46:44;17.10;92.60
1137;DHT22;557;48.466;7.950;2023-03-23T16:49:32;17.10;97.90
1137;DHT22;557;48.466;7.950;2023-03-23T16:52:20;17.10;91.70
1137;DHT22;557;48.466;7.950;2023-03-23T16:55:08;17.10;91.30
1137;DHT22;557;48.466;7.950;2023-03-23T16:57:56;17.10;91.80
1137;DHT22;557;48.466;7.950;2023-03-23T17:00:46;17.00;91.70
1137;DHT22;557;48.466;7.950;2023-03-23T17:03:34;17.00;91.50
1137;DHT22;557;48.466;7.950;2023-03-23T17:06:22;17.00;89.00
1137;DHT22;557;48.466;7.950;2023-03-23T17:09:09;17.00;91.70
1137;DHT22;557;48.466;7.950;2023-03-23T17:11:57;17.00;90.70
1137;DHT22;557;48.466;7.950;2023-03-23T17:14:44;17.00;90.80
1137;DHT22;557;48.466;7.950;2023-03-23T17:17:31;17.00;90.50
1137;DHT22;557;48.466;7.950;2023-03-23T17:20:20;17.00;91.10
1137;DHT22;557;48.466;7.950;2023-03-23T17:23:08;17.00;89.60
1137;DHT22;557;48.466;7.950;2023-03-23T17:25:55;17.00;88.70
1137;DHT22;557;48.466;7.950;2023-03-23T17:28:42;17.00;90.60
1137;DHT22;557;48.466;7.950;2023-03-23T17:31:30;17.00;92.20
1137;DHT22;557;48.466;7.950;2023-03-23T17:34:17;16.90;90.90
1137;DHT22;557;48.466;7.950;2023-03-23T17:37:07;16.90;98.30
1137;DHT22;557;48.466;7.950;2023-03-23T17:39:54;17.00;90.90
1137;DHT22;557;48.466;7.950;2023-03-23T17:42:42;17.00;91.40
1137;DHT22;557;48.466;7.950;2023-03-23T17:45:29;16.90;91.10
1137;DHT22;557;48.466;7.950;2023-03-23T17:48:16;16.90;91.80
1137;DHT22;557;48.466;7.950;2023-03-23T17:51:04;16.90;93.10
1137;DHT22;557;48.466;7.950;2023-03-23T17:53:53;16.80;92.30
1137;DHT22;557;48.466;7.950;2023-03-23T17:56:40;16.80;93.30
1137;DHT22;557;48.466;7.950;2023-03-23T17:59:28;16.90;93.40
1137;DHT22;557;48.466;7.950;2023-03-23T18:02:16;16.80;94.60
1137;DHT22;557;48.466;7.950;2023-03-23T18:05:05;16.80;94.50
1137;DHT22;557;48.466;7.950;2023-03-23T18:07:54;16.80;94.50
1137;DHT22;557;48.466;7.950;2023-03-23T18:10:43;16.80;95.00
1137;DHT22;557;48.466;7.950;2023-03-23T18:13:32;16.90;96.20
1137;DHT22;557;48.466;7.950;2023-03-23T18:16:20;16.80;95.90
1137;DHT22;557;48.466;7.950;2023-03-23T18:19:08;16.80;96.50
1137;DHT22;557;48.466;7.950;2023-03-23T18:21:55;16.80;96.00
1137;DHT22;557;48.466;7.950;2023-03-23T18:24:42;16.80;96.90
1137;DHT22;557;48.466;7.950;2023-03-23T18:27:32;16.80;97.20
1137;DHT22;557;48.466;7.950;2023-03-23T18:30:20;16.80;98.00
1137;DHT22;557;48.466;7.950;2023-03-23T18:33:07;16.80;99.90
1137;DHT22;557;48.466;7.950;2023-03-23T18:35:56;16.70;99.10
1137;DHT22;557;48.466;7.950;2023-03-23T18:38:43;16.70;98.80
1137;DHT22;557;48.466;7.950;2023-03-23T18:41:31;16.70;99.30
1137;DHT22;557;48.466;7.950;2023-03-23T18:44:20;16.70;99.90
1137;DHT22;557;48.466;7.950;2023-03-23T18:47:07;16.70;99.90
1137;DHT22;557;48.466;7.950;2023-03-23T18:49:55;16.60;99.90
1137;DHT22;557;48.466;7.950;2023-03-23T18:52:43;16.50;99.90
1137;DHT22;557;48.466;7.950;2023-03-23T18:55:30;16.50;99.90
1137;DHT22;557;48.466;7.950;2023-03-23T18:58:18;16.50;99.90
1137;DHT22;557;48.466;7.950;2023-03-23T19:01:09;16.60;99.90
1137;DHT22;557;48.466;7.950;2023-03-23T19:03:56;16.50;99.90
1137;DHT22;557;48.466;7.950;2023-03-23T19:06:44;16.50;99.90
1137;DHT22;557;48.466;7.950;2023-03-23T19:09:32;16.40;99.90